Time,TemperatureF,DewpointF,PressureIn,WindDirection,WindDirectionDegrees,WindSpeedMPH,WindSpeedGustMPH,Humidity,HourlyPrecipIn,Conditions,Clouds,dailyrainin,SoftwareType,DateUTC
2013-01-28 00:00:00,31.0,28.6,30.13,SSE,167,0.0,0.0,91,0.00,,,0.00,WUHU216DAVISVP2,2013-01-28 05:00:00,
2013-01-28 00:01:00,31.0,28.4,30.11,SSE,167,0.0,0.0,90,0.00,,,0.00,WUHU216DAVISVP2,2013-01-28 05:01:00,
2013-01-28 00:03:00,31.0,28.4,30.10,SSE,167,0.0,0.0,90,0.00,,,0.00,WUHU216DAVISVP2,2013-01-28 05:03:00,
2013-01-28 00:06:00,31.0,28.4,30.10,SSE,167,0.0,0.0,90,0.00,,,0.00,WUHU216DAVISVP2,2013-01-28 05:06:00,
2013-01-28 00:11:00,31.1,28.5,30.10,SSE,167,0.0,0.0,90,0.00,,,0.00,WUHU216DAVISVP2,2013-01-28 05:11:00,
2013-01-28 00:16:00,31.2,28.6,30.10,SSE,167,0.0,0.0,90,0.00,,,0.00,WUHU216DAVISVP2,2013-01-28 05:16:00,
2013-01-28 00:21:00,31.3,28.7,30.10,SSE,167,0.0,0.0,90,0.00,,,0.00,WUHU216DAVISVP2,2013-01-28 05:21:00,
2013-01-28 00:26:00,31.4,29.0,30.10,SSE,167,0.0,0.0,91,0.00,,,0.00,WUHU216DAVISVP2,2013-01-28 05:26:00,
2013-01-28 00:31:00,31.4,29.0,30.09,SSE,167,0.0,0.0,91,0.00,,,0.00,WUHU216DAVISVP2,2013-01-28 05:31:00,
2013-01-28 00:36:00,31.5,29.1,30.09,SSE,167,0.0,0.0,91,0.00,,,0.00,WUHU216DAVISVP2,2013-01-28 05:36:00,
2013-01-28 00:42:00,31.5,29.1,30.08,SSE,167,0.0,0.0,91,0.00,,,0.00,WUHU216DAVISVP2,2013-01-28 05:42:00,
2013-01-28 00:47:00,31.5,29.4,30.09,SSE,167,0.0,0.0,92,0.00,,,0.00,WUHU216DAVISVP2,2013-01-28 05:47:00,
2013-01-28 00:52:00,31.5,29.4,30.09,SSE,167,0.0,0.0,92,0.00,,,0.00,WUHU216DAVISVP2,2013-01-28 05:52:00,
2013-01-28 00:57:00,31.6,29.5,30.09,SSE,167,0.0,0.0,92,0.00,,,0.00,WUHU216DAVISVP2,2013-01-28 05:57:00,
2013-01-28 01:02:00,31.6,29.5,30.08,SSE,167,0.0,0.0,92,0.00,,,0.00,WUHU216DAVISVP2,2013-01-28 06:02:00,
2013-01-28 01:07:00,31.7,29.6,30.06,SSE,167,0.0,0.0,92,0.00,,,0.00,WUHU216DAVISVP2,2013-01-28 06:07:00,
2013-01-28 01:12:00,31.6,29.5,30.06,SSE,167,0.0,0.0,92,0.00,,,0.00,WUHU216DAVISVP2,2013-01-28 06:12:00,
2013-01-28 01:18:00,31.6,29.8,30.06,SSE,167,0.0,0.0,93,0.00,,,0.00,WUHU216DAVISVP2,2013-01-28 06:18:00,
2013-01-28 01:23:00,31.7,29.9,30.06,SSE,167,0.0,0.0,93,0.00,,,0.00,WUHU216DAVISVP2,2013-01-28 06:23:00,
2013-01-28 01:28:00,31.7,29.9,30.06,SSE,167,0.0,0.0,93,0.00,,,0.00,WUHU216DAVISVP2,2013-01-28 06:28:00,
2013-01-28 01:33:00,31.7,29.9,30.06,SSE,167,0.0,0.0,93,0.00,,,0.00,WUHU216DAVISVP2,2013-01-28 06:33:00,
2013-01-28 01:38:00,31.7,29.9,30.05,SSE,167,0.0,0.0,93,0.00,,,0.00,WUHU216DAVISVP2,2013-01-28 06:38:00,
2013-01-28 01:43:00,31.7,29.9,30.04,SSE,167,0.0,0.0,93,0.00,,,0.00,WUHU216DAVISVP2,2013-01-28 06:43:00,
2013-01-28 01:48:00,31.8,30.0,30.04,SSE,167,0.0,0.0,93,0.00,,,0.00,WUHU216DAVISVP2,2013-01-28 06:48:00,
2013-01-28 01:53:00,31.9,30.1,30.04,SSE,167,0.0,0.0,93,0.00,,,0.00,WUHU216DAVISVP2,2013-01-28 06:53:00,
2013-01-28 01:58:00,32.0,30.2,30.04,SSE,167,0.0,0.0,93,0.00,,,0.00,WUHU216DAVISVP2,2013-01-28 06:58:00,
2013-01-28 02:03:00,32.1,30.3,30.03,SSE,167,0.0,0.0,93,0.00,,,0.00,WUHU216DAVISVP2,2013-01-28 07:03:00,
2013-01-28 02:08:00,32.1,30.3,30.03,SSE,167,0.0,0.0,93,0.00,,,0.00,WUHU216DAVISVP2,2013-01-28 07:08:00,
2013-01-28 02:14:00,32.2,30.4,30.03,SSE,167,0.0,0.0,93,0.00,,,0.00,WUHU216DAVISVP2,2013-01-28 07:14:00,
2013-01-28 02:19:00,32.3,30.7,30.03,SSE,167,0.0,0.0,94,0.00,,,0.00,WUHU216DAVISVP2,2013-01-28 07:19:00,
2013-01-28 02:24:00,32.3,30.7,30.02,SSE,167,0.0,0.0,94,0.00,,,0.00,WUHU216DAVISVP2,2013-01-28 07:24:00,
2013-01-28 02:29:00,32.5,30.9,30.02,SSE,167,0.0,0.0,94,0.00,,,0.00,WUHU216DAVISVP2,2013-01-28 07:29:00,
2013-01-28 02:34:00,32.6,31.0,30.03,SSE,167,0.0,0.0,94,0.00,,,0.00,WUHU216DAVISVP2,2013-01-28 07:34:00,
2013-01-28 02:39:00,32.8,31.2,30.02,SSE,167,0.0,0.0,94,0.00,,,0.00,WUHU216DAVISVP2,2013-01-28 07:39:00,
2013-01-28 02:44:00,32.9,31.3,30.01,SSE,167,0.0,0.0,94,0.00,,,0.00,WUHU216DAVISVP2,2013-01-28 07:44:00,
2013-01-28 02:49:00,33.0,31.4,30.01,SSE,167,0.0,0.0,94,0.00,,,0.00,WUHU216DAVISVP2,2013-01-28 07:49:00,
2013-01-28 02:54:00,33.1,31.5,30.01,SSE,167,0.0,0.0,94,0.00,,,0.00,WUHU216DAVISVP2,2013-01-28 07:54:00,
2013-01-28 02:59:00,33.3,31.7,30.01,SSE,167,0.0,0.0,94,0.00,,,0.00,WUHU216DAVISVP2,2013-01-28 07:59:00,
2013-01-28 03:04:00,33.3,31.7,30.00,SSE,167,0.0,0.0,94,0.00,,,0.00,WUHU216DAVISVP2,2013-01-28 08:04:00,
2013-01-28 03:10:00,33.3,31.7,30.01,SSE,167,0.0,0.0,94,0.00,,,0.00,WUHU216DAVISVP2,2013-01-28 08:10:00,
2013-01-28 03:15:00,33.3,31.7,30.00,SSE,167,0.0,0.0,94,0.00,,,0.00,WUHU216DAVISVP2,2013-01-28 08:15:00,
2013-01-28 03:20:00,33.4,31.8,30.00,SSE,167,0.0,0.0,94,0.00,,,0.00,WUHU216DAVISVP2,2013-01-28 08:20:00,
2013-01-28 03:25:00,33.4,31.8,30.00,SSE,167,0.0,0.0,94,0.00,,,0.00,WUHU216DAVISVP2,2013-01-28 08:25:00,
2013-01-28 03:30:00,33.4,31.8,30.00,SSE,167,0.0,0.0,94,0.00,,,0.00,WUHU216DAVISVP2,2013-01-28 08:30:00,
2013-01-28 03:35:00,33.5,32.2,30.00,SSE,167,0.0,0.0,95,0.00,,,0.00,WUHU216DAVISVP2,2013-01-28 08:35:00,
2013-01-28 03:40:00,33.5,32.2,30.00,SSE,167,0.0,0.0,95,0.00,,,0.00,WUHU216DAVISVP2,2013-01-28 08:40:00,
2013-01-28 03:45:00,33.6,32.3,29.99,SSE,167,0.0,0.0,95,0.00,,,0.00,WUHU216DAVISVP2,2013-01-28 08:45:00,
2013-01-28 03:51:00,33.6,32.3,29.99,SSE,167,0.0,0.0,95,0.00,,,0.00,WUHU216DAVISVP2,2013-01-28 08:51:00,
2013-01-28 03:56:00,33.8,32.5,29.98,SSE,167,0.0,0.0,95,0.00,,,0.00,WUHU216DAVISVP2,2013-01-28 08:56:00,
2013-01-28 04:01:00,33.8,32.5,29.98,SSE,167,0.0,0.0,95,0.00,,,0.00,WUHU216DAVISVP2,2013-01-28 09:01:00,
2013-01-28 04:06:00,33.7,32.4,29.97,SSE,167,0.0,0.0,95,0.00,,,0.00,WUHU216DAVISVP2,2013-01-28 09:06:00,
2013-01-28 04:11:00,33.7,32.4,29.98,SSE,167,0.0,0.0,95,0.00,,,0.00,WUHU216DAVISVP2,2013-01-28 09:11:00,
2013-01-28 04:16:00,33.7,32.4,29.98,SSE,167,0.0,0.0,95,0.00,,,0.00,WUHU216DAVISVP2,2013-01-28 09:16:00,
2013-01-28 04:21:00,33.7,32.4,29.97,SSE,167,0.0,0.0,95,0.00,,,0.00,WUHU216DAVISVP2,2013-01-28 09:21:00,
2013-01-28 04:26:00,33.7,32.4,29.97,SSE,167,0.0,0.0,95,0.00,,,0.00,WUHU216DAVISVP2,2013-01-28 09:26:00,
2013-01-28 04:31:00,33.7,32.4,29.96,SSE,167,0.0,0.0,95,0.00,,,0.00,WUHU216DAVISVP2,2013-01-28 09:31:00,
2013-01-28 04:37:00,33.7,32.4,29.96,SSE,167,0.0,0.0,95,0.00,,,0.00,WUHU216DAVISVP2,2013-01-28 09:37:00,
2013-01-28 04:42:00,33.8,32.5,29.96,SSE,167,0.0,0.0,95,0.00,,,0.00,WUHU216DAVISVP2,2013-01-28 09:42:00,
2013-01-28 04:47:00,33.9,32.6,29.96,West,279,0.0,0.0,95,0.00,,,0.00,WUHU216DAVISVP2,2013-01-28 09:47:00,
2013-01-28 04:52:00,34.0,32.7,29.96,NNW,331,0.0,0.0,95,0.00,,,0.00,WUHU216DAVISVP2,2013-01-28 09:52:00,
2013-01-28 04:57:00,33.9,32.6,29.95,NNW,332,0.0,0.0,95,0.00,,,0.00,WUHU216DAVISVP2,2013-01-28 09:57:00,
2013-01-28 05:02:00,33.9,32.6,29.95,NW,325,0.0,0.0,95,0.00,,,0.00,WUHU216DAVISVP2,2013-01-28 10:02:00,
2013-01-28 05:07:00,33.9,32.6,29.95,NNW,342,0.0,0.0,95,0.00,,,0.00,WUHU216DAVISVP2,2013-01-28 10:07:00,
2013-01-28 05:12:00,34.0,32.7,29.95,North,360,0.0,0.0,95,0.00,,,0.00,WUHU216DAVISVP2,2013-01-28 10:12:00,
2013-01-28 05:17:00,34.1,32.8,29.94,North,10,0.0,0.0,95,0.00,,,0.00,WUHU216DAVISVP2,2013-01-28 10:17:00,
2013-01-28 05:22:00,34.1,33.0,29.94,West,267,0.0,0.0,96,0.00,,,0.00,WUHU216DAVISVP2,2013-01-28 10:22:00,
2013-01-28 05:27:00,34.1,33.0,29.94,NNW,346,0.0,0.0,96,0.00,,,0.00,WUHU216DAVISVP2,2013-01-28 10:27:00,
2013-01-28 05:31:00,34.2,33.1,29.94,NW,321,0.0,0.0,96,0.00,,,0.00,WUHU216DAVISVP2,2013-01-28 10:31:00,
2013-01-28 05:33:00,34.2,33.1,29.94,NW,321,0.0,0.0,96,0.00,,,0.00,WUHU216DAVISVP2,2013-01-28 10:33:00,
2013-01-28 05:38:00,34.4,33.3,29.94,North,5,0.0,0.0,96,0.00,,,0.00,WUHU216DAVISVP2,2013-01-28 10:38:00,
2013-01-28 05:43:00,34.4,33.3,29.94,North,5,0.0,0.0,96,0.00,,,0.00,WUHU216DAVISVP2,2013-01-28 10:43:00,
2013-01-28 05:48:00,34.6,33.5,29.93,WNW,290,0.0,0.0,96,0.00,,,0.00,WUHU216DAVISVP2,2013-01-28 10:48:00,
2013-01-28 05:53:00,34.7,33.6,29.93,NW,321,0.0,0.0,96,0.00,,,0.00,WUHU216DAVISVP2,2013-01-28 10:53:00,
2013-01-28 05:58:00,34.7,33.6,29.93,WNW,295,0.0,0.0,96,0.01,,,0.01,WUHU216DAVISVP2,2013-01-28 10:58:00,
2013-01-28 06:03:00,34.7,33.6,29.93,WNW,295,0.0,0.0,96,0.01,,,0.01,WUHU216DAVISVP2,2013-01-28 11:03:00,
2013-01-28 06:08:00,34.8,33.7,29.92,NNW,329,0.0,0.0,96,0.03,,,0.03,WUHU216DAVISVP2,2013-01-28 11:08:00,
2013-01-28 06:13:00,34.9,33.8,29.92,WNW,303,0.0,0.0,96,0.07,,,0.07,WUHU216DAVISVP2,2013-01-28 11:13:00,
2013-01-28 06:19:00,35.0,33.9,29.92,NNW,339,0.0,0.0,96,0.09,,,0.09,WUHU216DAVISVP2,2013-01-28 11:19:00,
2013-01-28 06:24:00,35.1,34.0,29.92,North,360,0.0,0.0,96,0.09,,,0.09,WUHU216DAVISVP2,2013-01-28 11:24:00,
2013-01-28 06:29:00,35.3,34.2,29.92,North,5,0.0,0.0,96,0.09,,,0.09,WUHU216DAVISVP2,2013-01-28 11:29:00,
2013-01-28 06:34:00,35.4,34.3,29.90,NW,311,0.0,0.0,96,0.09,,,0.09,WUHU216DAVISVP2,2013-01-28 11:34:00,
2013-01-28 06:39:00,35.4,34.3,29.90,NNW,330,0.0,0.0,96,0.09,,,0.09,WUHU216DAVISVP2,2013-01-28 11:39:00,
2013-01-28 06:44:00,35.5,34.4,29.91,NW,315,0.0,0.0,96,0.09,,,0.09,WUHU216DAVISVP2,2013-01-28 11:44:00,
2013-01-28 06:50:00,35.6,34.6,29.90,North,355,0.0,0.0,96,0.09,,,0.09,WUHU216DAVISVP2,2013-01-28 11:50:00,
2013-01-28 06:55:00,35.7,34.7,29.90,North,9,0.0,0.0,96,0.09,,,0.09,WUHU216DAVISVP2,2013-01-28 11:55:00,
2013-01-28 07:00:00,35.8,34.8,29.90,North,11,0.0,0.0,96,0.08,,,0.09,WUHU216DAVISVP2,2013-01-28 12:00:00,
2013-01-28 07:05:00,35.9,34.9,29.90,NNW,334,0.0,0.0,96,0.08,,,0.09,WUHU216DAVISVP2,2013-01-28 12:05:00,
2013-01-28 07:10:00,36.1,35.1,29.90,NNW,345,0.0,0.0,96,0.04,,,0.09,WUHU216DAVISVP2,2013-01-28 12:10:00,
2013-01-28 07:15:00,36.1,35.0,29.90,North,355,0.0,0.0,96,0.02,,,0.09,WUHU216DAVISVP2,2013-01-28 12:15:00,
2013-01-28 07:20:00,36.2,35.1,29.90,North,360,0.0,0.0,96,0.00,,,0.09,WUHU216DAVISVP2,2013-01-28 12:20:00,
2013-01-28 07:25:00,36.2,35.1,29.90,North,360,0.0,0.0,96,0.00,,,0.09,WUHU216DAVISVP2,2013-01-28 12:25:00,
2013-01-28 07:30:00,36.4,35.3,29.89,North,9,0.0,0.0,96,0.00,,,0.09,WUHU216DAVISVP2,2013-01-28 12:30:00,
2013-01-28 07:36:00,36.5,35.5,29.89,NNE,15,0.0,0.0,96,0.00,,,0.09,WUHU216DAVISVP2,2013-01-28 12:36:00,
2013-01-28 07:41:00,36.5,35.5,29.89,North,355,0.0,0.0,96,0.00,,,0.09,WUHU216DAVISVP2,2013-01-28 12:41:00,
2013-01-28 07:46:00,36.5,35.4,29.89,North,360,0.0,0.0,96,0.00,,,0.09,WUHU216DAVISVP2,2013-01-28 12:46:00,
2013-01-28 07:51:00,36.8,35.8,29.89,NNW,346,0.0,0.0,96,0.00,,,0.09,WUHU216DAVISVP2,2013-01-28 12:51:00,
2013-01-28 07:54:00,36.8,35.8,29.89,NNE,24,0.0,0.0,96,0.00,,,0.09,WUHU216DAVISVP2,2013-01-28 12:54:00,
2013-01-28 07:56:00,36.8,35.8,29.89,NNE,24,0.0,0.0,96,0.00,,,0.09,WUHU216DAVISVP2,2013-01-28 12:56:00,
2013-01-28 08:01:00,36.8,35.8,29.89,NNE,24,0.0,0.0,96,0.00,,,0.09,WUHU216DAVISVP2,2013-01-28 13:01:00,
2013-01-28 08:06:00,37.0,35.9,29.88,North,355,0.0,0.0,96,0.02,,,0.11,WUHU216DAVISVP2,2013-01-28 13:06:00,
2013-01-28 08:11:00,37.0,35.9,29.88,NNW,338,0.0,0.0,96,0.02,,,0.11,WUHU216DAVISVP2,2013-01-28 13:11:00,
2013-01-28 08:17:00,37.0,35.9,29.88,NNE,15,0.0,0.0,96,0.03,,,0.12,WUHU216DAVISVP2,2013-01-28 13:17:00,
2013-01-28 08:22:00,37.1,36.0,29.88,NNE,17,0.0,0.0,96,0.04,,,0.13,WUHU216DAVISVP2,2013-01-28 13:22:00,
2013-01-28 08:27:00,37.2,36.1,29.88,NNE,23,0.0,0.0,96,0.04,,,0.13,WUHU216DAVISVP2,2013-01-28 13:27:00,
2013-01-28 08:32:00,37.3,36.2,29.88,NE,51,0.0,0.0,96,0.05,,,0.14,WUHU216DAVISVP2,2013-01-28 13:32:00,
2013-01-28 08:37:00,37.4,36.3,29.88,NNE,13,0.0,0.0,96,0.05,,,0.14,WUHU216DAVISVP2,2013-01-28 13:37:00,
2013-01-28 08:42:00,37.4,36.3,29.88,North,10,0.0,0.0,96,0.05,,,0.14,WUHU216DAVISVP2,2013-01-28 13:42:00,
2013-01-28 08:47:00,37.7,36.6,29.88,NNE,32,0.0,0.0,96,0.05,,,0.14,WUHU216DAVISVP2,2013-01-28 13:47:00,
2013-01-28 08:48:00,37.7,36.6,29.88,NE,43,0.0,0.0,96,0.05,,,0.14,WUHU216DAVISVP2,2013-01-28 13:48:00,
2013-01-28 08:52:00,37.8,36.7,29.87,NNE,30,0.0,0.0,96,0.05,,,0.14,WUHU216DAVISVP2,2013-01-28 13:52:00,
2013-01-28 08:57:00,37.9,36.8,29.88,NE,45,0.0,0.0,96,0.06,,,0.15,WUHU216DAVISVP2,2013-01-28 13:57:00,
2013-01-28 09:02:00,38.1,37.0,29.88,North,355,0.0,0.0,96,0.05,,,0.15,WUHU216DAVISVP2,2013-01-28 14:02:00,
2013-01-28 09:07:00,38.3,37.5,29.88,NNE,28,0.0,0.0,97,0.04,,,0.16,WUHU216DAVISVP2,2013-01-28 14:07:00,
2013-01-28 09:12:00,38.6,37.5,29.88,NNE,32,0.0,0.0,96,0.05,,,0.17,WUHU216DAVISVP2,2013-01-28 14:12:00,
2013-01-28 09:18:00,38.8,37.7,29.88,North,5,0.0,0.0,96,0.05,,,0.18,WUHU216DAVISVP2,2013-01-28 14:18:00,
2013-01-28 09:23:00,39.0,38.2,29.88,NNE,23,0.0,0.0,97,0.06,,,0.19,WUHU216DAVISVP2,2013-01-28 14:23:00,
2013-01-28 09:28:00,39.3,38.5,29.87,NNE,12,0.0,0.0,97,0.06,,,0.19,WUHU216DAVISVP2,2013-01-28 14:28:00,
2013-01-28 09:33:00,39.5,38.7,29.87,NE,36,0.0,0.0,97,0.07,,,0.21,WUHU216DAVISVP2,2013-01-28 14:33:00,
2013-01-28 09:38:00,39.6,38.8,29.87,NNE,30,0.0,0.0,97,0.07,,,0.21,WUHU216DAVISVP2,2013-01-28 14:38:00,
2013-01-28 09:43:00,39.7,38.9,29.87,North,360,0.0,0.0,97,0.07,,,0.21,WUHU216DAVISVP2,2013-01-28 14:43:00,
2013-01-28 09:48:00,39.8,39.0,29.87,NNE,30,0.0,0.0,97,0.08,,,0.22,WUHU216DAVISVP2,2013-01-28 14:48:00,
2013-01-28 09:50:00,39.8,39.0,29.87,NNE,15,0.0,0.0,97,0.08,,,0.22,WUHU216DAVISVP2,2013-01-28 14:50:00,
2013-01-28 09:53:00,39.9,39.1,29.87,NNE,17,0.0,0.0,97,0.08,,,0.22,WUHU216DAVISVP2,2013-01-28 14:53:00,
2013-01-28 09:57:00,40.0,39.2,29.87,NNE,13,0.0,0.0,97,0.07,,,0.22,WUHU216DAVISVP2,2013-01-28 14:57:00,
2013-01-28 09:59:00,39.8,39.0,29.87,NNE,15,0.0,0.0,97,0.08,,,0.22,WUHU216DAVISVP2,2013-01-28 14:59:00,
2013-01-28 10:04:00,40.2,39.4,29.87,NE,43,0.0,0.0,97,0.07,,,0.22,WUHU216DAVISVP2,2013-01-28 15:04:00,
2013-01-28 10:09:00,40.3,39.5,29.87,North,5,0.0,0.0,97,0.06,,,0.22,WUHU216DAVISVP2,2013-01-28 15:09:00,
2013-01-28 10:14:00,40.5,39.7,29.87,NNE,26,0.0,0.0,97,0.06,,,0.23,WUHU216DAVISVP2,2013-01-28 15:14:00,
2013-01-28 10:19:00,40.5,39.7,29.87,NE,41,0.0,0.0,97,0.05,,,0.23,WUHU216DAVISVP2,2013-01-28 15:19:00,
2013-01-28 10:24:00,40.7,39.9,29.87,North,350,0.0,0.0,97,0.04,,,0.23,WUHU216DAVISVP2,2013-01-28 15:24:00,
2013-01-28 10:29:00,40.8,40.0,29.87,North,355,0.0,0.0,97,0.03,,,0.23,WUHU216DAVISVP2,2013-01-28 15:29:00,
2013-01-28 10:34:00,40.9,40.1,29.87,NNE,32,0.0,0.0,97,0.02,,,0.23,WUHU216DAVISVP2,2013-01-28 15:34:00,
2013-01-28 10:40:00,41.1,40.3,29.88,NE,37,0.0,0.0,97,0.02,,,0.23,WUHU216DAVISVP2,2013-01-28 15:40:00,
2013-01-28 10:45:00,41.2,40.4,29.87,NE,39,0.0,0.0,97,0.01,,,0.23,WUHU216DAVISVP2,2013-01-28 15:45:00,
2013-01-28 10:50:00,41.3,40.5,29.87,NNW,330,0.0,0.0,97,0.01,,,0.23,WUHU216DAVISVP2,2013-01-28 15:50:00,
2013-01-28 10:55:00,41.5,40.7,29.88,North,355,0.0,0.0,97,0.01,,,0.23,WUHU216DAVISVP2,2013-01-28 15:55:00,
2013-01-28 11:00:00,41.6,40.8,29.88,NNE,26,0.0,0.0,97,0.01,,,0.23,WUHU216DAVISVP2,2013-01-28 16:00:00,
2013-01-28 11:05:00,41.8,41.0,29.88,NNE,26,0.0,0.0,97,0.01,,,0.23,WUHU216DAVISVP2,2013-01-28 16:05:00,
2013-01-28 11:10:00,41.9,41.1,29.88,North,360,0.0,0.0,97,0.01,,,0.23,WUHU216DAVISVP2,2013-01-28 16:10:00,
2013-01-28 11:16:00,42.0,41.2,29.88,NNE,25,0.0,0.0,97,0.00,,,0.23,WUHU216DAVISVP2,2013-01-28 16:16:00,
2013-01-28 11:21:00,42.2,41.4,29.88,NNE,26,0.0,0.0,97,0.00,,,0.23,WUHU216DAVISVP2,2013-01-28 16:21:00,
2013-01-28 11:26:00,42.2,41.4,29.88,NNE,24,0.0,0.0,97,0.00,,,0.23,WUHU216DAVISVP2,2013-01-28 16:26:00,
2013-01-28 11:31:00,42.3,41.5,29.88,NE,53,0.0,0.0,97,0.00,,,0.23,WUHU216DAVISVP2,2013-01-28 16:31:00,
2013-01-28 11:36:00,42.4,41.6,29.88,NNE,30,0.0,0.0,97,0.00,,,0.23,WUHU216DAVISVP2,2013-01-28 16:36:00,
2013-01-28 11:41:00,42.5,41.7,29.88,North,10,0.0,0.0,97,0.00,,,0.23,WUHU216DAVISVP2,2013-01-28 16:41:00,
2013-01-28 11:46:00,42.6,41.8,29.88,North,355,0.0,0.0,97,0.00,,,0.23,WUHU216DAVISVP2,2013-01-28 16:46:00,
2013-01-28 11:51:00,42.7,41.9,29.88,NNE,16,0.0,0.0,97,0.01,,,0.24,WUHU216DAVISVP2,2013-01-28 16:51:00,
2013-01-28 11:56:00,42.8,42.0,29.88,North,360,0.0,0.0,97,0.01,,,0.24,WUHU216DAVISVP2,2013-01-28 16:56:00,
2013-01-28 12:01:00,42.9,42.1,29.88,NNE,30,0.0,0.0,97,0.01,,,0.24,WUHU216DAVISVP2,2013-01-28 17:01:00,
2013-01-28 12:06:00,43.0,42.2,29.87,North,5,0.0,0.0,97,0.01,,,0.24,WUHU216DAVISVP2,2013-01-28 17:06:00,
2013-01-28 12:11:00,43.1,42.3,29.87,NNE,26,0.0,0.0,97,0.01,,,0.24,WUHU216DAVISVP2,2013-01-28 17:11:00,
2013-01-28 12:16:00,43.1,42.3,29.87,NE,36,0.0,0.0,97,0.01,,,0.24,WUHU216DAVISVP2,2013-01-28 17:16:00,
2013-01-28 12:21:00,43.2,42.4,29.87,NE,36,0.0,0.0,97,0.01,,,0.24,WUHU216DAVISVP2,2013-01-28 17:21:00,
2013-01-28 12:27:00,43.3,42.5,29.86,North,5,0.0,0.0,97,0.01,,,0.24,WUHU216DAVISVP2,2013-01-28 17:27:00,
2013-01-28 12:32:00,43.4,42.6,29.86,NNE,17,0.0,0.0,97,0.01,,,0.24,WUHU216DAVISVP2,2013-01-28 17:32:00,
2013-01-28 12:37:00,43.5,42.7,29.86,North,5,0.0,0.0,97,0.01,,,0.24,WUHU216DAVISVP2,2013-01-28 17:37:00,
2013-01-28 12:42:00,43.6,42.8,29.85,NNW,348,0.0,0.0,97,0.01,,,0.24,WUHU216DAVISVP2,2013-01-28 17:42:00,
2013-01-28 12:47:00,43.8,43.0,29.85,North,350,0.0,0.0,97,0.01,,,0.24,WUHU216DAVISVP2,2013-01-28 17:47:00,
2013-01-28 12:52:00,43.9,43.1,29.85,NNE,17,0.0,0.0,97,0.00,,,0.24,WUHU216DAVISVP2,2013-01-28 17:52:00,
2013-01-28 12:57:00,44.0,43.2,29.85,NNE,29,0.0,0.0,97,0.00,,,0.24,WUHU216DAVISVP2,2013-01-28 17:57:00,
2013-01-28 13:03:00,44.1,43.3,29.85,WNW,292,0.0,0.0,97,0.00,,,0.24,WUHU216DAVISVP2,2013-01-28 18:03:00,
2013-01-28 13:08:00,44.2,43.4,29.85,NE,37,0.0,0.0,97,0.00,,,0.24,WUHU216DAVISVP2,2013-01-28 18:08:00,
2013-01-28 13:13:00,44.2,43.4,29.85,NE,38,0.0,0.0,97,0.00,,,0.24,WUHU216DAVISVP2,2013-01-28 18:13:00,
2013-01-28 13:18:00,44.4,43.6,29.85,NE,44,0.0,0.0,97,0.00,,,0.24,WUHU216DAVISVP2,2013-01-28 18:18:00,
2013-01-28 13:23:00,44.4,43.6,29.84,NNE,23,0.0,0.0,97,0.00,,,0.24,WUHU216DAVISVP2,2013-01-28 18:23:00,
2013-01-28 13:28:00,44.5,43.7,29.84,NNE,25,0.0,0.0,97,0.00,,,0.24,WUHU216DAVISVP2,2013-01-28 18:28:00,
2013-01-28 13:33:00,44.5,43.7,29.84,NNE,32,0.0,0.0,97,0.00,,,0.24,WUHU216DAVISVP2,2013-01-28 18:33:00,
2013-01-28 13:38:00,44.6,43.8,29.84,East,81,0.0,0.0,97,0.00,,,0.24,WUHU216DAVISVP2,2013-01-28 18:38:00,
2013-01-28 13:43:00,44.7,43.9,29.84,NE,52,0.0,0.0,97,0.00,,,0.24,WUHU216DAVISVP2,2013-01-28 18:43:00,
2013-01-28 13:49:00,44.8,44.0,29.84,NE,42,0.0,0.0,97,0.00,,,0.24,WUHU216DAVISVP2,2013-01-28 18:49:00,
2013-01-28 13:54:00,44.8,44.0,29.84,NNW,342,0.0,0.0,97,0.00,,,0.24,WUHU216DAVISVP2,2013-01-28 18:54:00,
2013-01-28 13:59:00,44.9,44.1,29.84,ENE,59,0.0,0.0,97,0.00,,,0.24,WUHU216DAVISVP2,2013-01-28 18:59:00,
2013-01-28 14:04:00,44.9,44.1,29.84,NE,42,0.0,0.0,97,0.00,,,0.24,WUHU216DAVISVP2,2013-01-28 19:04:00,
2013-01-28 14:09:00,44.9,44.1,29.84,NNE,30,0.0,0.0,97,0.00,,,0.24,WUHU216DAVISVP2,2013-01-28 19:09:00,
2013-01-28 14:14:00,45.0,44.2,29.84,NNE,27,0.0,0.0,97,0.00,,,0.24,WUHU216DAVISVP2,2013-01-28 19:14:00,
2013-01-28 14:19:00,45.0,44.2,29.83,NE,34,0.0,0.0,97,0.00,,,0.24,WUHU216DAVISVP2,2013-01-28 19:19:00,
2013-01-28 14:24:00,45.1,44.3,29.84,NE,36,0.0,0.0,97,0.00,,,0.24,WUHU216DAVISVP2,2013-01-28 19:24:00,
2013-01-28 14:30:00,45.2,44.4,29.84,NNE,20,0.0,0.0,97,0.00,,,0.24,WUHU216DAVISVP2,2013-01-28 19:30:00,
2013-01-28 14:35:00,45.2,44.4,29.84,NE,43,0.0,0.0,97,0.00,,,0.24,WUHU216DAVISVP2,2013-01-28 19:35:00,
2013-01-28 14:40:00,45.3,44.5,29.84,WNW,302,0.0,0.0,97,0.00,,,0.24,WUHU216DAVISVP2,2013-01-28 19:40:00,
2013-01-28 14:45:00,45.4,44.6,29.84,WSW,248,0.0,0.0,97,0.00,,,0.24,WUHU216DAVISVP2,2013-01-28 19:45:00,
2013-01-28 14:50:00,45.4,44.6,29.84,WSW,247,0.0,0.0,97,0.00,,,0.24,WUHU216DAVISVP2,2013-01-28 19:50:00,
2013-01-28 14:55:00,45.5,44.7,29.84,NNE,24,0.0,0.0,97,0.00,,,0.24,WUHU216DAVISVP2,2013-01-28 19:55:00,
2013-01-28 14:58:00,45.6,44.8,29.84,NNE,31,0.0,0.0,97,0.00,,,0.24,WUHU216DAVISVP2,2013-01-28 19:58:00,
2013-01-28 15:00:00,45.6,44.8,29.84,NNE,31,0.0,0.0,97,0.00,,,0.24,WUHU216DAVISVP2,2013-01-28 20:00:00,
2013-01-28 15:05:00,45.6,44.8,29.84,NNE,31,0.0,0.0,97,0.00,,,0.24,WUHU216DAVISVP2,2013-01-28 20:05:00,
2013-01-28 15:10:00,45.8,45.0,29.84,NNE,24,0.0,0.0,97,0.01,,,0.25,WUHU216DAVISVP2,2013-01-28 20:10:00,
2013-01-28 15:15:00,45.9,45.1,29.85,West,267,0.0,0.0,97,0.01,,,0.25,WUHU216DAVISVP2,2013-01-28 20:15:00,
2013-01-28 15:20:00,46.0,45.2,29.85,NE,43,0.0,0.0,97,0.01,,,0.25,WUHU216DAVISVP2,2013-01-28 20:20:00,
2013-01-28 15:25:00,46.0,45.2,29.85,SE,125,0.0,0.0,97,0.01,,,0.25,WUHU216DAVISVP2,2013-01-28 20:25:00,
2013-01-28 15:30:00,46.1,45.3,29.85,SE,125,0.0,0.0,97,0.01,,,0.25,WUHU216DAVISVP2,2013-01-28 20:30:00,
2013-01-28 15:36:00,46.2,45.4,29.86,SE,125,0.0,0.0,97,0.01,,,0.25,WUHU216DAVISVP2,2013-01-28 20:36:00,
2013-01-28 15:41:00,46.3,45.5,29.86,SE,125,0.0,0.0,97,0.01,,,0.25,WUHU216DAVISVP2,2013-01-28 20:41:00,
2013-01-28 15:46:00,46.3,45.5,29.86,SE,125,0.0,0.0,97,0.01,,,0.25,WUHU216DAVISVP2,2013-01-28 20:46:00,
2013-01-28 15:51:00,46.3,45.5,29.86,SE,125,0.0,0.0,97,0.01,,,0.25,WUHU216DAVISVP2,2013-01-28 20:51:00,
2013-01-28 15:56:00,46.3,45.5,29.86,SE,125,0.0,0.0,97,0.01,,,0.25,WUHU216DAVISVP2,2013-01-28 20:56:00,
2013-01-28 16:01:00,46.3,45.5,29.86,SE,125,0.0,0.0,97,0.01,,,0.25,WUHU216DAVISVP2,2013-01-28 21:01:00,
2013-01-28 16:07:00,46.4,45.6,29.86,SE,125,0.0,0.0,97,0.00,,,0.25,WUHU216DAVISVP2,2013-01-28 21:07:00,
2013-01-28 16:12:00,46.5,45.7,29.87,SE,125,0.0,0.0,97,0.00,,,0.25,WUHU216DAVISVP2,2013-01-28 21:12:00,
2013-01-28 16:17:00,46.5,45.7,29.87,SE,125,0.0,0.0,97,0.00,,,0.25,WUHU216DAVISVP2,2013-01-28 21:17:00,
2013-01-28 16:22:00,46.5,45.7,29.87,SE,125,0.0,0.0,97,0.00,,,0.25,WUHU216DAVISVP2,2013-01-28 21:22:00,
2013-01-28 16:27:00,46.4,45.6,29.87,SE,125,0.0,0.0,97,0.00,,,0.25,WUHU216DAVISVP2,2013-01-28 21:27:00,
2013-01-28 16:32:00,46.5,45.7,29.87,SE,125,0.0,0.0,97,0.00,,,0.25,WUHU216DAVISVP2,2013-01-28 21:32:00,
2013-01-28 16:37:00,46.5,45.7,29.88,SE,124,0.0,0.0,97,0.00,,,0.25,WUHU216DAVISVP2,2013-01-28 21:37:00,
2013-01-28 16:42:00,46.5,45.7,29.88,SE,124,0.0,0.0,97,0.00,,,0.25,WUHU216DAVISVP2,2013-01-28 21:42:00,
2013-01-28 16:48:00,46.5,45.7,29.88,SE,124,0.0,0.0,97,0.00,,,0.25,WUHU216DAVISVP2,2013-01-28 21:48:00,
2013-01-28 16:53:00,46.5,45.7,29.88,SE,124,0.0,0.0,97,0.00,,,0.25,WUHU216DAVISVP2,2013-01-28 21:53:00,
2013-01-28 16:58:00,46.6,45.8,29.88,SE,124,0.0,0.0,97,0.00,,,0.25,WUHU216DAVISVP2,2013-01-28 21:58:00,
2013-01-28 17:03:00,46.6,45.8,29.88,SE,124,0.0,0.0,97,0.00,,,0.25,WUHU216DAVISVP2,2013-01-28 22:03:00,
2013-01-28 17:08:00,46.7,45.9,29.89,SE,124,0.0,0.0,97,0.00,,,0.25,WUHU216DAVISVP2,2013-01-28 22:08:00,
2013-01-28 17:13:00,46.7,45.9,29.89,SE,124,0.0,0.0,97,0.00,,,0.25,WUHU216DAVISVP2,2013-01-28 22:13:00,
2013-01-28 17:18:00,46.7,45.9,29.89,SE,124,0.0,0.0,97,0.00,,,0.25,WUHU216DAVISVP2,2013-01-28 22:18:00,
2013-01-28 17:23:00,46.6,45.8,29.89,SE,124,0.0,0.0,97,0.00,,,0.25,WUHU216DAVISVP2,2013-01-28 22:23:00,
2013-01-28 17:28:00,46.6,45.8,29.90,SE,124,0.0,0.0,97,0.00,,,0.25,WUHU216DAVISVP2,2013-01-28 22:28:00,
2013-01-28 17:33:00,46.6,45.8,29.90,SE,124,0.0,0.0,97,0.00,,,0.25,WUHU216DAVISVP2,2013-01-28 22:33:00,
2013-01-28 17:38:00,46.5,45.7,29.90,SE,124,0.0,0.0,97,0.00,,,0.25,WUHU216DAVISVP2,2013-01-28 22:38:00,
2013-01-28 17:43:00,46.4,45.6,29.90,SE,124,0.0,0.0,97,0.00,,,0.25,WUHU216DAVISVP2,2013-01-28 22:43:00,
2013-01-28 17:48:00,46.4,45.6,29.91,SE,124,0.0,0.0,97,0.00,,,0.25,WUHU216DAVISVP2,2013-01-28 22:48:00,
2013-01-28 17:53:00,46.3,45.5,29.91,SE,124,0.0,0.0,97,0.00,,,0.25,WUHU216DAVISVP2,2013-01-28 22:53:00,
2013-01-28 17:58:00,46.3,45.5,29.91,SE,124,0.0,0.0,97,0.00,,,0.25,WUHU216DAVISVP2,2013-01-28 22:58:00,
2013-01-28 18:04:00,46.4,45.6,29.91,SE,124,0.0,0.0,97,0.00,,,0.25,WUHU216DAVISVP2,2013-01-28 23:04:00,
2013-01-28 18:09:00,46.3,45.5,29.91,SE,124,0.0,0.0,97,0.00,,,0.25,WUHU216DAVISVP2,2013-01-28 23:09:00,
2013-01-28 18:11:00,46.3,45.5,29.92,SE,124,0.0,0.0,97,0.00,,,0.25,WUHU216DAVISVP2,2013-01-28 23:11:00,
2013-01-28 18:14:00,46.3,45.5,29.92,SE,124,0.0,0.0,97,0.00,,,0.25,WUHU216DAVISVP2,2013-01-28 23:14:00,
2013-01-28 18:17:00,46.2,45.4,29.92,SE,124,0.0,0.0,97,0.00,,,0.25,WUHU216DAVISVP2,2013-01-28 23:17:00,
2013-01-28 18:19:00,46.3,45.5,29.92,SE,124,0.0,0.0,97,0.00,,,0.25,WUHU216DAVISVP2,2013-01-28 23:19:00,
2013-01-28 18:24:00,46.2,45.4,29.92,SE,124,0.0,0.0,97,0.00,,,0.25,WUHU216DAVISVP2,2013-01-28 23:24:00,
2013-01-28 18:29:00,46.2,45.4,29.92,SE,124,0.0,0.0,97,0.00,,,0.25,WUHU216DAVISVP2,2013-01-28 23:29:00,
2013-01-28 18:34:00,46.1,45.3,29.92,SE,124,0.0,0.0,97,0.00,,,0.25,WUHU216DAVISVP2,2013-01-28 23:34:00,
2013-01-28 18:39:00,46.1,45.3,29.92,SE,124,0.0,0.0,97,0.00,,,0.25,WUHU216DAVISVP2,2013-01-28 23:39:00,
2013-01-28 18:45:00,46.0,45.2,29.92,SE,124,0.0,0.0,97,0.00,,,0.25,WUHU216DAVISVP2,2013-01-28 23:45:00,
2013-01-28 18:50:00,45.9,45.1,29.92,SE,124,0.0,0.0,97,0.00,,,0.25,WUHU216DAVISVP2,2013-01-28 23:50:00,
2013-01-28 18:55:00,45.9,45.1,29.92,SE,124,0.0,0.0,97,0.00,,,0.25,WUHU216DAVISVP2,2013-01-28 23:55:00,
2013-01-28 19:00:00,45.9,45.1,29.93,SE,124,0.0,0.0,97,0.00,,,0.25,WUHU216DAVISVP2,2013-01-29 00:00:00,
2013-01-28 19:05:00,45.8,45.0,29.93,SE,124,0.0,0.0,97,0.00,,,0.25,WUHU216DAVISVP2,2013-01-29 00:05:00,
2013-01-28 19:10:00,45.6,44.8,29.93,SE,124,0.0,0.0,97,0.00,,,0.25,WUHU216DAVISVP2,2013-01-29 00:10:00,
2013-01-28 19:15:00,45.5,44.7,29.93,SE,124,0.0,0.0,97,0.00,,,0.25,WUHU216DAVISVP2,2013-01-29 00:15:00,
2013-01-28 19:20:00,45.3,44.5,29.93,SE,124,0.0,0.0,97,0.00,,,0.25,WUHU216DAVISVP2,2013-01-29 00:20:00,
2013-01-28 19:25:00,45.3,44.5,29.94,SE,124,0.0,0.0,97,0.00,,,0.25,WUHU216DAVISVP2,2013-01-29 00:25:00,
2013-01-28 19:30:00,45.1,44.3,29.94,SE,124,0.0,0.0,97,0.00,,,0.25,WUHU216DAVISVP2,2013-01-29 00:30:00,
2013-01-28 19:35:00,44.9,44.1,29.94,SE,124,0.0,0.0,97,0.00,,,0.25,WUHU216DAVISVP2,2013-01-29 00:35:00,
2013-01-28 19:41:00,44.7,43.9,29.94,SE,124,0.0,0.0,97,0.00,,,0.25,WUHU216DAVISVP2,2013-01-29 00:41:00,
2013-01-28 19:46:00,44.6,43.8,29.94,SE,124,0.0,0.0,97,0.00,,,0.25,WUHU216DAVISVP2,2013-01-29 00:46:00,
2013-01-28 19:51:00,44.5,43.7,29.94,SE,124,0.0,0.0,97,0.00,,,0.25,WUHU216DAVISVP2,2013-01-29 00:51:00,
2013-01-28 19:56:00,44.3,43.5,29.94,SE,124,0.0,0.0,97,0.00,,,0.25,WUHU216DAVISVP2,2013-01-29 00:56:00,
2013-01-28 20:01:00,44.0,43.2,29.95,SE,124,0.0,0.0,97,0.00,,,0.25,WUHU216DAVISVP2,2013-01-29 01:01:00,
2013-01-28 20:06:00,44.0,43.2,29.95,SE,124,0.0,0.0,97,0.00,,,0.25,WUHU216DAVISVP2,2013-01-29 01:06:00,
2013-01-28 20:11:00,43.8,43.0,29.95,SE,124,0.0,0.0,97,0.00,,,0.25,WUHU216DAVISVP2,2013-01-29 01:11:00,
2013-01-28 20:16:00,43.7,42.9,29.95,SE,124,0.0,0.0,97,0.00,,,0.25,WUHU216DAVISVP2,2013-01-29 01:16:00,
2013-01-28 20:21:00,43.6,42.8,29.95,SE,124,0.0,0.0,97,0.00,,,0.25,WUHU216DAVISVP2,2013-01-29 01:21:00,
2013-01-28 20:26:00,43.5,42.7,29.95,SE,124,0.0,0.0,97,0.00,,,0.25,WUHU216DAVISVP2,2013-01-29 01:26:00,
2013-01-28 20:31:00,43.4,42.6,29.95,SE,124,0.0,0.0,97,0.00,,,0.25,WUHU216DAVISVP2,2013-01-29 01:31:00,
2013-01-28 20:36:00,43.4,42.6,29.95,SE,124,0.0,0.0,97,0.00,,,0.25,WUHU216DAVISVP2,2013-01-29 01:36:00,
2013-01-28 20:41:00,43.3,42.2,29.95,SE,124,0.0,0.0,96,0.00,,,0.25,WUHU216DAVISVP2,2013-01-29 01:41:00,
2013-01-28 20:46:00,43.3,42.2,29.96,SE,124,0.0,0.0,96,0.00,,,0.25,WUHU216DAVISVP2,2013-01-29 01:46:00,
2013-01-28 20:52:00,43.2,42.1,29.96,SE,124,0.0,0.0,96,0.00,,,0.25,WUHU216DAVISVP2,2013-01-29 01:52:00,
2013-01-28 20:57:00,43.1,42.0,29.96,SE,124,0.0,0.0,96,0.00,,,0.25,WUHU216DAVISVP2,2013-01-29 01:57:00,
2013-01-28 21:02:00,43.1,42.0,29.96,SE,124,0.0,0.0,96,0.00,,,0.25,WUHU216DAVISVP2,2013-01-29 02:02:00,
2013-01-28 21:07:00,43.0,41.9,29.97,SE,124,0.0,0.0,96,0.00,,,0.25,WUHU216DAVISVP2,2013-01-29 02:07:00,
2013-01-28 21:12:00,43.0,41.9,29.97,SE,124,0.0,0.0,96,0.00,,,0.25,WUHU216DAVISVP2,2013-01-29 02:12:00,
2013-01-28 21:17:00,42.6,41.5,29.96,SE,124,0.0,0.0,96,0.00,,,0.25,WUHU216DAVISVP2,2013-01-29 02:17:00,
2013-01-28 21:22:00,42.2,41.1,29.96,SE,124,0.0,0.0,96,0.00,,,0.25,WUHU216DAVISVP2,2013-01-29 02:22:00,
2013-01-28 21:27:00,41.9,40.8,29.96,SE,124,0.0,0.0,96,0.00,,,0.25,WUHU216DAVISVP2,2013-01-29 02:27:00,
2013-01-28 21:32:00,41.8,40.7,29.96,SE,124,0.0,0.0,96,0.00,,,0.25,WUHU216DAVISVP2,2013-01-29 02:32:00,
2013-01-28 21:38:00,41.6,40.5,29.96,SE,124,0.0,0.0,96,0.00,,,0.25,WUHU216DAVISVP2,2013-01-29 02:38:00,
2013-01-28 21:43:00,41.4,40.3,29.96,SE,124,0.0,0.0,96,0.00,,,0.25,WUHU216DAVISVP2,2013-01-29 02:43:00,
2013-01-28 21:48:00,41.3,40.2,29.96,SE,124,0.0,0.0,96,0.00,,,0.25,WUHU216DAVISVP2,2013-01-29 02:48:00,
2013-01-28 21:53:00,41.2,40.1,29.96,SE,124,0.0,0.0,96,0.00,,,0.25,WUHU216DAVISVP2,2013-01-29 02:53:00,
2013-01-28 21:58:00,41.1,40.0,29.96,SE,124,0.0,0.0,96,0.00,,,0.25,WUHU216DAVISVP2,2013-01-29 02:58:00,
2013-01-28 22:03:00,41.1,40.0,29.96,SE,124,0.0,0.0,96,0.00,,,0.25,WUHU216DAVISVP2,2013-01-29 03:03:00,
2013-01-28 22:08:00,41.1,40.0,29.96,SE,124,0.0,0.0,96,0.00,,,0.25,WUHU216DAVISVP2,2013-01-29 03:08:00,
2013-01-28 22:14:00,41.1,40.0,29.96,SE,124,0.0,0.0,96,0.00,,,0.25,WUHU216DAVISVP2,2013-01-29 03:14:00,
2013-01-28 22:19:00,40.9,39.8,29.97,SE,124,0.0,0.0,96,0.00,,,0.25,WUHU216DAVISVP2,2013-01-29 03:19:00,
2013-01-28 22:24:00,40.9,39.8,29.97,SE,124,0.0,0.0,96,0.00,,,0.25,WUHU216DAVISVP2,2013-01-29 03:24:00,
2013-01-28 22:29:00,40.8,39.7,29.97,SE,124,0.0,0.0,96,0.00,,,0.25,WUHU216DAVISVP2,2013-01-29 03:29:00,
2013-01-28 22:34:00,40.7,39.6,29.97,SE,124,0.0,0.0,96,0.00,,,0.25,WUHU216DAVISVP2,2013-01-29 03:34:00,
2013-01-28 22:39:00,40.7,39.6,29.96,SE,124,0.0,0.0,96,0.00,,,0.25,WUHU216DAVISVP2,2013-01-29 03:39:00,
2013-01-28 22:44:00,40.7,39.6,29.96,SE,124,0.0,0.0,96,0.00,,,0.25,WUHU216DAVISVP2,2013-01-29 03:44:00,
2013-01-28 22:50:00,40.6,39.5,29.96,SE,124,0.0,0.0,96,0.00,,,0.25,WUHU216DAVISVP2,2013-01-29 03:50:00,
2013-01-28 22:55:00,40.6,39.5,29.96,SE,124,0.0,0.0,96,0.00,,,0.25,WUHU216DAVISVP2,2013-01-29 03:55:00,
2013-01-28 22:57:00,40.5,39.4,29.97,SE,124,0.0,0.0,96,0.00,,,0.25,WUHU216DAVISVP2,2013-01-29 03:57:00,
2013-01-28 23:00:00,40.5,39.4,29.97,SE,124,0.0,0.0,96,0.00,,,0.25,WUHU216DAVISVP2,2013-01-29 04:00:00,
2013-01-28 23:05:00,40.5,39.4,29.97,SE,124,0.0,0.0,96,0.00,,,0.25,WUHU216DAVISVP2,2013-01-29 04:05:00,
2013-01-28 23:10:00,40.4,39.3,29.96,SE,124,0.0,0.0,96,0.00,,,0.25,WUHU216DAVISVP2,2013-01-29 04:10:00,
2013-01-28 23:15:00,40.4,39.3,29.96,SE,124,0.0,0.0,96,0.00,,,0.25,WUHU216DAVISVP2,2013-01-29 04:15:00,
2013-01-28 23:20:00,40.3,39.2,29.97,SE,124,0.0,0.0,96,0.00,,,0.25,WUHU216DAVISVP2,2013-01-29 04:20:00,
2013-01-28 23:25:00,40.2,39.1,29.97,SE,124,0.0,0.0,96,0.00,,,0.25,WUHU216DAVISVP2,2013-01-29 04:25:00,
2013-01-28 23:30:00,40.0,38.9,29.97,SE,124,0.0,0.0,96,0.00,,,0.25,WUHU216DAVISVP2,2013-01-29 04:30:00,
2013-01-28 23:35:00,39.9,38.8,29.97,SE,124,0.0,0.0,96,0.00,,,0.25,WUHU216DAVISVP2,2013-01-29 04:35:00,
2013-01-28 23:40:00,39.9,38.8,29.97,SE,124,0.0,0.0,96,0.00,,,0.25,WUHU216DAVISVP2,2013-01-29 04:40:00,
2013-01-28 23:45:00,39.8,38.7,29.97,SE,124,0.0,0.0,96,0.00,,,0.25,WUHU216DAVISVP2,2013-01-29 04:45:00,
2013-01-28 23:51:00,39.8,38.7,29.97,SE,124,0.0,0.0,96,0.00,,,0.25,WUHU216DAVISVP2,2013-01-29 04:51:00,
2013-01-28 23:56:00,39.7,38.6,29.97,SE,124,0.0,0.0,96,0.00,,,0.25,WUHU216DAVISVP2,2013-01-29 04:56:00,